Airfield :
LOGIN :

Register | Disclaimer

   EN    FR    IT 

 










Legend :    VFR   Marginal VFR   IFR   Intensive IFR   Very Intensive IFR
Visi :
Ceiling :
>= 8 km
>= 3000ft
5 to 8 km
1000 to 3000 ft
1500m to 5 km
500 to 1000 ft
800 to 1500m
200 to 500 ft
< 800m
< 200 ft
Symbols :   Thunderstorms  Fog  Heavy snow  Heavy precipitations  Wind > 20 kt
SIGMETs :     Misc.  Thunderstorms  Icing  Turbulence  Mountain Waves  Volcanic Ashes







- Airport Elevation : 209 ft
- IATA code : CLY
- Download approach charts


LFKC - Calvi

CURRENT METAR :
  • 180500Z AUTO 16008KT CAVOK 19/14 Q1014 BECMG 35010KT

EXPIRED METARs :
  • 180430Z AUTO 19004KT CAVOK 18/15 Q1014 BECMG 35010KT
  • 180400Z AUTO 18004KT 160V220 CAVOK 18/14 Q1014 NOSIG
  • 180330Z AUTO 00000KT CAVOK 18/15 Q1014 NOSIG
  • 180300Z AUTO 17007KT CAVOK 18/15 Q1014 NOSIG
  • 180230Z AUTO 18003KT CAVOK 19/16 Q1014 NOSIG
  • 180200Z AUTO VRB03KT CAVOK 19/15 Q1014

TAF TAF LFKC
Valid from the 18 at 03:00 until the 19 at 03:00 UTC


180200Z 1803/1903 18003KT CAVOK TX32/1812Z TN20/1804Z
BECMG 1806/1808 35010KT
TEMPO 1812/1818 24010KT
BECMG 1818/1820 18005KT
ATIS : +33 4 95 65 82 49
No reported NOTAMs for that airfield.



MET'MAP, your aeronautical weather chart ! - Copyright ORBIFLY December 2007 - Disclaimer

ORBIFLY MET'MAP TEAM :

Programming & Development : Alexandra Zaïnal
Concept & Development : Baudouin d'Aumeries
Co-Development & Prog : Marc-Olivier Méhu
Technical & hardware support : Manuel Goepfert

Contact : metmap@orbifly.com




SOURCES & CREDITS :

   NOAA